sensor_id;sensor_type;location;lat;lon;timestamp;P1;durP1;ratioP1;P2;durP2;ratioP2
51686;SDS011;37774;52.192;4.584;2024-03-08T00:01:41;41.80;;;17.05;;
51686;SDS011;37774;52.192;4.584;2024-03-08T00:07:13;42.00;;;13.95;;
51686;SDS011;37774;52.192;4.584;2024-03-08T00:09:58;47.35;;;17.08;;
51686;SDS011;37774;52.192;4.584;2024-03-08T00:12:43;41.95;;;16.77;;
51686;SDS011;37774;52.192;4.584;2024-03-08T00:15:31;52.78;;;16.33;;
51686;SDS011;37774;52.192;4.584;2024-03-08T00:18:17;46.67;;;17.25;;
51686;SDS011;37774;52.192;4.584;2024-03-08T00:21:02;47.33;;;15.65;;
51686;SDS011;37774;52.192;4.584;2024-03-08T00:23:48;57.25;;;17.88;;
51686;SDS011;37774;52.192;4.584;2024-03-08T00:26:33;53.00;;;18.58;;
51686;SDS011;37774;52.192;4.584;2024-03-08T00:29:18;45.65;;;18.25;;
51686;SDS011;37774;52.192;4.584;2024-03-08T00:32:04;45.67;;;18.23;;
51686;SDS011;37774;52.192;4.584;2024-03-08T00:34:51;41.03;;;17.35;;
51686;SDS011;37774;52.192;4.584;2024-03-08T00:37:36;61.50;;;16.88;;
51686;SDS011;37774;52.192;4.584;2024-03-08T00:40:21;51.15;;;19.17;;
51686;SDS011;37774;52.192;4.584;2024-03-08T00:43:07;53.85;;;18.35;;
51686;SDS011;37774;52.192;4.584;2024-03-08T00:45:52;51.47;;;17.77;;
51686;SDS011;37774;52.192;4.584;2024-03-08T00:48:39;53.15;;;17.45;;
51686;SDS011;37774;52.192;4.584;2024-03-08T00:51:27;50.35;;;19.73;;
51686;SDS011;37774;52.192;4.584;2024-03-08T00:54:12;47.10;;;18.17;;
51686;SDS011;37774;52.192;4.584;2024-03-08T00:56:57;52.75;;;17.95;;
51686;SDS011;37774;52.192;4.584;2024-03-08T00:59:43;47.90;;;17.27;;
51686;SDS011;37774;52.192;4.584;2024-03-08T01:02:29;56.63;;;18.52;;
51686;SDS011;37774;52.192;4.584;2024-03-08T01:05:15;49.83;;;18.35;;
51686;SDS011;37774;52.192;4.584;2024-03-08T01:08:01;53.42;;;18.20;;
51686;SDS011;37774;52.192;4.584;2024-03-08T01:10:47;53.08;;;18.55;;
51686;SDS011;37774;52.192;4.584;2024-03-08T01:13:34;43.85;;;17.67;;
51686;SDS011;37774;52.192;4.584;2024-03-08T01:16:20;46.63;;;18.08;;
51686;SDS011;37774;52.192;4.584;2024-03-08T01:19:05;53.42;;;18.83;;
51686;SDS011;37774;52.192;4.584;2024-03-08T01:21:52;52.33;;;16.88;;
51686;SDS011;37774;52.192;4.584;2024-03-08T01:24:39;54.80;;;17.88;;
51686;SDS011;37774;52.192;4.584;2024-03-08T01:27:25;36.63;;;14.40;;
51686;SDS011;37774;52.192;4.584;2024-03-08T01:30:10;44.58;;;17.77;;
51686;SDS011;37774;52.192;4.584;2024-03-08T01:32:56;39.70;;;16.23;;
51686;SDS011;37774;52.192;4.584;2024-03-08T01:35:42;42.53;;;16.48;;
51686;SDS011;37774;52.192;4.584;2024-03-08T01:38:28;37.55;;;17.33;;
51686;SDS011;37774;52.192;4.584;2024-03-08T01:41:13;48.38;;;16.50;;
51686;SDS011;37774;52.192;4.584;2024-03-08T01:44:01;45.25;;;16.45;;
51686;SDS011;37774;52.192;4.584;2024-03-08T01:46:46;43.22;;;18.27;;
51686;SDS011;37774;52.192;4.584;2024-03-08T01:49:32;41.00;;;18.70;;
51686;SDS011;37774;52.192;4.584;2024-03-08T01:52:18;31.75;;;15.00;;
51686;SDS011;37774;52.192;4.584;2024-03-08T01:55:07;49.17;;;17.27;;
51686;SDS011;37774;52.192;4.584;2024-03-08T02:00:38;47.40;;;17.45;;
51686;SDS011;37774;52.192;4.584;2024-03-08T02:03:24;51.22;;;18.77;;
51686;SDS011;37774;52.192;4.584;2024-03-08T02:06:11;56.65;;;18.77;;
51686;SDS011;37774;52.192;4.584;2024-03-08T02:08:57;49.70;;;16.63;;
51686;SDS011;37774;52.192;4.584;2024-03-08T02:11:44;47.97;;;18.75;;
51686;SDS011;37774;52.192;4.584;2024-03-08T02:14:30;47.95;;;19.83;;
51686;SDS011;37774;52.192;4.584;2024-03-08T02:17:15;37.70;;;15.48;;
51686;SDS011;37774;52.192;4.584;2024-03-08T02:20:01;55.03;;;18.63;;
51686;SDS011;37774;52.192;4.584;2024-03-08T02:22:49;48.90;;;17.55;;
51686;SDS011;37774;52.192;4.584;2024-03-08T02:25:34;43.10;;;18.83;;
51686;SDS011;37774;52.192;4.584;2024-03-08T02:28:20;54.63;;;17.17;;
51686;SDS011;37774;52.192;4.584;2024-03-08T02:31:05;45.47;;;20.17;;
51686;SDS011;37774;52.192;4.584;2024-03-08T02:33:52;50.83;;;18.38;;
51686;SDS011;37774;52.192;4.584;2024-03-08T02:36:38;63.97;;;20.05;;
51686;SDS011;37774;52.192;4.584;2024-03-08T02:39:24;52.47;;;20.63;;
51686;SDS011;37774;52.192;4.584;2024-03-08T02:42:09;41.20;;;15.93;;
51686;SDS011;37774;52.192;4.584;2024-03-08T02:44:54;52.83;;;18.45;;
51686;SDS011;37774;52.192;4.584;2024-03-08T02:47:39;49.55;;;19.23;;
51686;SDS011;37774;52.192;4.584;2024-03-08T02:50:24;38.13;;;15.23;;
51686;SDS011;37774;52.192;4.584;2024-03-08T02:53:10;48.08;;;17.30;;
51686;SDS011;37774;52.192;4.584;2024-03-08T02:55:56;54.90;;;19.55;;
51686;SDS011;37774;52.192;4.584;2024-03-08T02:58:42;49.00;;;17.90;;
51686;SDS011;37774;52.192;4.584;2024-03-08T03:01:27;47.42;;;17.30;;
51686;SDS011;37774;52.192;4.584;2024-03-08T03:04:12;52.65;;;17.63;;
51686;SDS011;37774;52.192;4.584;2024-03-08T03:06:57;49.88;;;18.17;;
51686;SDS011;37774;52.192;4.584;2024-03-08T03:09:43;53.13;;;17.65;;
51686;SDS011;37774;52.192;4.584;2024-03-08T03:12:29;52.42;;;18.92;;
51686;SDS011;37774;52.192;4.584;2024-03-08T03:15:15;45.72;;;17.55;;
51686;SDS011;37774;52.192;4.584;2024-03-08T03:18:01;48.50;;;17.08;;
51686;SDS011;37774;52.192;4.584;2024-03-08T03:20:47;53.83;;;18.58;;
51686;SDS011;37774;52.192;4.584;2024-03-08T03:23:33;47.97;;;17.27;;
51686;SDS011;37774;52.192;4.584;2024-03-08T03:26:18;44.58;;;17.75;;
51686;SDS011;37774;52.192;4.584;2024-03-08T03:29:05;43.08;;;19.15;;
51686;SDS011;37774;52.192;4.584;2024-03-08T03:31:52;49.97;;;19.42;;
51686;SDS011;37774;52.192;4.584;2024-03-08T03:34:37;47.33;;;19.05;;
51686;SDS011;37774;52.192;4.584;2024-03-08T03:37:22;54.65;;;19.92;;
51686;SDS011;37774;52.192;4.584;2024-03-08T03:40:08;54.65;;;20.95;;
51686;SDS011;37774;52.192;4.584;2024-03-08T03:42:53;46.10;;;20.13;;
51686;SDS011;37774;52.192;4.584;2024-03-08T03:45:40;46.17;;;19.05;;
51686;SDS011;37774;52.192;4.584;2024-03-08T03:48:25;49.50;;;19.60;;
51686;SDS011;37774;52.192;4.584;2024-03-08T03:51:10;56.17;;;20.42;;
51686;SDS011;37774;52.192;4.584;2024-03-08T03:53:55;49.45;;;19.48;;
51686;SDS011;37774;52.192;4.584;2024-03-08T03:56:41;49.20;;;17.35;;
51686;SDS011;37774;52.192;4.584;2024-03-08T03:59:26;56.00;;;19.67;;
51686;SDS011;37774;52.192;4.584;2024-03-08T04:02:13;43.72;;;19.55;;
51686;SDS011;37774;52.192;4.584;2024-03-08T04:04:58;52.28;;;18.77;;
51686;SDS011;37774;52.192;4.584;2024-03-08T04:07:44;53.95;;;20.45;;
51686;SDS011;37774;52.192;4.584;2024-03-08T04:10:29;63.28;;;20.65;;
51686;SDS011;37774;52.192;4.584;2024-03-08T04:13:14;56.95;;;18.55;;
51686;SDS011;37774;52.192;4.584;2024-03-08T04:16:00;50.15;;;19.58;;
51686;SDS011;37774;52.192;4.584;2024-03-08T04:18:47;45.13;;;18.67;;
51686;SDS011;37774;52.192;4.584;2024-03-08T04:24:17;52.72;;;18.70;;
51686;SDS011;37774;52.192;4.584;2024-03-08T04:27:02;54.30;;;20.13;;
51686;SDS011;37774;52.192;4.584;2024-03-08T04:29:48;53.53;;;18.98;;
51686;SDS011;37774;52.192;4.584;2024-03-08T04:32:33;41.30;;;16.25;;
51686;SDS011;37774;52.192;4.584;2024-03-08T04:35:19;50.35;;;18.65;;
51686;SDS011;37774;52.192;4.584;2024-03-08T04:38:05;50.80;;;19.67;;
51686;SDS011;37774;52.192;4.584;2024-03-08T04:40:50;49.20;;;19.70;;
51686;SDS011;37774;52.192;4.584;2024-03-08T04:43:35;48.70;;;19.85;;
51686;SDS011;37774;52.192;4.584;2024-03-08T04:46:20;44.83;;;18.08;;
51686;SDS011;37774;52.192;4.584;2024-03-08T04:49:05;50.65;;;18.63;;
51686;SDS011;37774;52.192;4.584;2024-03-08T04:51:52;44.75;;;18.73;;
51686;SDS011;37774;52.192;4.584;2024-03-08T04:54:37;52.72;;;20.10;;
51686;SDS011;37774;52.192;4.584;2024-03-08T04:57:22;48.78;;;18.33;;
51686;SDS011;37774;52.192;4.584;2024-03-08T05:00:09;54.97;;;19.88;;
51686;SDS011;37774;52.192;4.584;2024-03-08T05:02:55;42.30;;;16.75;;
51686;SDS011;37774;52.192;4.584;2024-03-08T05:05:40;48.05;;;19.80;;
51686;SDS011;37774;52.192;4.584;2024-03-08T05:08:27;52.70;;;19.10;;
51686;SDS011;37774;52.192;4.584;2024-03-08T05:11:12;61.08;;;23.52;;
51686;SDS011;37774;52.192;4.584;2024-03-08T05:13:58;49.38;;;18.38;;
51686;SDS011;37774;52.192;4.584;2024-03-08T05:16:44;40.28;;;17.38;;
51686;SDS011;37774;52.192;4.584;2024-03-08T05:19:32;47.45;;;17.15;;
51686;SDS011;37774;52.192;4.584;2024-03-08T05:22:17;40.67;;;16.73;;
51686;SDS011;37774;52.192;4.584;2024-03-08T05:25:04;44.70;;;18.85;;
51686;SDS011;37774;52.192;4.584;2024-03-08T05:27:52;46.03;;;19.23;;
51686;SDS011;37774;52.192;4.584;2024-03-08T05:30:37;47.80;;;18.92;;
51686;SDS011;37774;52.192;4.584;2024-03-08T05:33:23;51.63;;;20.50;;
51686;SDS011;37774;52.192;4.584;2024-03-08T05:36:08;46.88;;;19.08;;
51686;SDS011;37774;52.192;4.584;2024-03-08T05:38:55;46.10;;;19.00;;
51686;SDS011;37774;52.192;4.584;2024-03-08T05:41:42;37.67;;;17.65;;
51686;SDS011;37774;52.192;4.584;2024-03-08T05:44:27;55.17;;;21.88;;
51686;SDS011;37774;52.192;4.584;2024-03-08T05:50:00;45.58;;;19.33;;
51686;SDS011;37774;52.192;4.584;2024-03-08T05:52:45;53.33;;;19.42;;
51686;SDS011;37774;52.192;4.584;2024-03-08T05:55:32;43.13;;;19.13;;
51686;SDS011;37774;52.192;4.584;2024-03-08T05:58:20;43.10;;;18.98;;
51686;SDS011;37774;52.192;4.584;2024-03-08T06:01:05;47.75;;;19.23;;
51686;SDS011;37774;52.192;4.584;2024-03-08T06:03:51;43.92;;;17.95;;
51686;SDS011;37774;52.192;4.584;2024-03-08T06:06:39;50.72;;;19.13;;
51686;SDS011;37774;52.192;4.584;2024-03-08T06:09:24;51.85;;;21.02;;
51686;SDS011;37774;52.192;4.584;2024-03-08T06:12:10;53.90;;;20.35;;
51686;SDS011;37774;52.192;4.584;2024-03-08T06:14:56;51.85;;;20.00;;
51686;SDS011;37774;52.192;4.584;2024-03-08T06:17:41;51.28;;;19.85;;
51686;SDS011;37774;52.192;4.584;2024-03-08T06:20:27;50.38;;;20.38;;
51686;SDS011;37774;52.192;4.584;2024-03-08T06:23:12;50.55;;;20.40;;
51686;SDS011;37774;52.192;4.584;2024-03-08T06:26:01;55.33;;;21.92;;
51686;SDS011;37774;52.192;4.584;2024-03-08T06:28:47;65.97;;;21.90;;
51686;SDS011;37774;52.192;4.584;2024-03-08T06:31:33;54.47;;;20.80;;
51686;SDS011;37774;52.192;4.584;2024-03-08T06:34:22;55.17;;;21.15;;
51686;SDS011;37774;52.192;4.584;2024-03-08T06:37:07;55.22;;;20.25;;
51686;SDS011;37774;52.192;4.584;2024-03-08T06:39:52;51.80;;;20.20;;
51686;SDS011;37774;52.192;4.584;2024-03-08T06:42:38;56.97;;;20.60;;
51686;SDS011;37774;52.192;4.584;2024-03-08T06:45:23;56.53;;;20.45;;
51686;SDS011;37774;52.192;4.584;2024-03-08T06:48:11;44.27;;;20.77;;
51686;SDS011;37774;52.192;4.584;2024-03-08T06:50:56;46.15;;;19.73;;
51686;SDS011;37774;52.192;4.584;2024-03-08T06:53:41;58.15;;;20.85;;
51686;SDS011;37774;52.192;4.584;2024-03-08T06:56:26;59.78;;;20.38;;
51686;SDS011;37774;52.192;4.584;2024-03-08T06:59:11;51.85;;;19.38;;
51686;SDS011;37774;52.192;4.584;2024-03-08T07:01:56;57.10;;;23.50;;
51686;SDS011;37774;52.192;4.584;2024-03-08T07:04:44;56.67;;;20.30;;
51686;SDS011;37774;52.192;4.584;2024-03-08T07:07:29;53.90;;;20.77;;
51686;SDS011;37774;52.192;4.584;2024-03-08T07:10:15;49.50;;;21.53;;
51686;SDS011;37774;52.192;4.584;2024-03-08T07:13:00;65.53;;;22.63;;
51686;SDS011;37774;52.192;4.584;2024-03-08T07:15:46;50.95;;;18.00;;
51686;SDS011;37774;52.192;4.584;2024-03-08T07:18:31;53.70;;;21.55;;
51686;SDS011;37774;52.192;4.584;2024-03-08T07:21:19;53.72;;;22.25;;
51686;SDS011;37774;52.192;4.584;2024-03-08T07:24:04;51.67;;;20.38;;
51686;SDS011;37774;52.192;4.584;2024-03-08T07:27:08;51.95;;;22.05;;
51686;SDS011;37774;52.192;4.584;2024-03-08T07:29:53;49.35;;;20.17;;
51686;SDS011;37774;52.192;4.584;2024-03-08T07:32:39;57.55;;;21.23;;
51686;SDS011;37774;52.192;4.584;2024-03-08T07:35:24;55.35;;;21.05;;
51686;SDS011;37774;52.192;4.584;2024-03-08T07:38:12;48.33;;;20.10;;
51686;SDS011;37774;52.192;4.584;2024-03-08T07:40:57;50.63;;;21.10;;
51686;SDS011;37774;52.192;4.584;2024-03-08T07:43:42;44.92;;;19.70;;
51686;SDS011;37774;52.192;4.584;2024-03-08T07:46:27;58.25;;;23.50;;
51686;SDS011;37774;52.192;4.584;2024-03-08T07:49:13;49.10;;;20.80;;
51686;SDS011;37774;52.192;4.584;2024-03-08T07:51:58;46.60;;;19.00;;
51686;SDS011;37774;52.192;4.584;2024-03-08T07:54:45;41.70;;;18.70;;
51686;SDS011;37774;52.192;4.584;2024-03-08T07:57:30;54.88;;;22.25;;
51686;SDS011;37774;52.192;4.584;2024-03-08T08:00:16;58.60;;;21.88;;
51686;SDS011;37774;52.192;4.584;2024-03-08T08:03:02;43.58;;;19.75;;
51686;SDS011;37774;52.192;4.584;2024-03-08T08:05:47;54.85;;;20.58;;
51686;SDS011;37774;52.192;4.584;2024-03-08T08:08:32;53.85;;;20.60;;
51686;SDS011;37774;52.192;4.584;2024-03-08T08:11:19;55.60;;;20.48;;
51686;SDS011;37774;52.192;4.584;2024-03-08T08:14:04;53.75;;;20.35;;
51686;SDS011;37774;52.192;4.584;2024-03-08T08:16:49;48.47;;;20.52;;
51686;SDS011;37774;52.192;4.584;2024-03-08T08:19:36;49.55;;;21.35;;
51686;SDS011;37774;52.192;4.584;2024-03-08T08:22:22;50.75;;;20.05;;
51686;SDS011;37774;52.192;4.584;2024-03-08T08:25:07;45.20;;;20.00;;
51686;SDS011;37774;52.192;4.584;2024-03-08T08:27:54;53.75;;;21.55;;
51686;SDS011;37774;52.192;4.584;2024-03-08T08:30:39;42.90;;;17.88;;
51686;SDS011;37774;52.192;4.584;2024-03-08T08:33:24;64.47;;;22.20;;
51686;SDS011;37774;52.192;4.584;2024-03-08T08:36:10;43.67;;;19.42;;
51686;SDS011;37774;52.192;4.584;2024-03-08T08:38:56;47.83;;;21.17;;
51686;SDS011;37774;52.192;4.584;2024-03-08T08:41:43;51.10;;;22.45;;
51686;SDS011;37774;52.192;4.584;2024-03-08T08:44:29;42.72;;;20.60;;
51686;SDS011;37774;52.192;4.584;2024-03-08T08:47:14;58.38;;;21.83;;
51686;SDS011;37774;52.192;4.584;2024-03-08T08:50:00;51.15;;;21.50;;
51686;SDS011;37774;52.192;4.584;2024-03-08T08:55:32;46.05;;;20.55;;
51686;SDS011;37774;52.192;4.584;2024-03-08T09:01:05;53.15;;;22.17;;
51686;SDS011;37774;52.192;4.584;2024-03-08T09:03:51;44.17;;;20.85;;
51686;SDS011;37774;52.192;4.584;2024-03-08T09:06:37;40.45;;;17.75;;
51686;SDS011;37774;52.192;4.584;2024-03-08T09:09:25;49.00;;;20.35;;
51686;SDS011;37774;52.192;4.584;2024-03-08T09:12:10;47.40;;;20.73;;
51686;SDS011;37774;52.192;4.584;2024-03-08T09:14:56;50.42;;;21.17;;
51686;SDS011;37774;52.192;4.584;2024-03-08T09:17:43;49.13;;;20.52;;
51686;SDS011;37774;52.192;4.584;2024-03-08T09:20:28;49.42;;;22.08;;
51686;SDS011;37774;52.192;4.584;2024-03-08T09:23:15;56.03;;;23.80;;
51686;SDS011;37774;52.192;4.584;2024-03-08T09:26:01;57.13;;;21.88;;
51686;SDS011;37774;52.192;4.584;2024-03-08T09:28:47;52.05;;;20.75;;
51686;SDS011;37774;52.192;4.584;2024-03-08T09:31:32;49.58;;;20.08;;
51686;SDS011;37774;52.192;4.584;2024-03-08T09:34:18;34.90;;;17.58;;
51686;SDS011;37774;52.192;4.584;2024-03-08T09:37:03;41.83;;;18.60;;
51686;SDS011;37774;52.192;4.584;2024-03-08T09:39:49;43.47;;;19.10;;
51686;SDS011;37774;52.192;4.584;2024-03-08T09:42:34;52.47;;;19.65;;
51686;SDS011;37774;52.192;4.584;2024-03-08T09:45:21;49.58;;;20.02;;
51686;SDS011;37774;52.192;4.584;2024-03-08T09:48:09;52.88;;;20.50;;
51686;SDS011;37774;52.192;4.584;2024-03-08T09:50:57;37.22;;;17.88;;
51686;SDS011;37774;52.192;4.584;2024-03-08T09:53:42;47.28;;;18.90;;
51686;SDS011;37774;52.192;4.584;2024-03-08T09:56:27;39.05;;;19.48;;
51686;SDS011;37774;52.192;4.584;2024-03-08T09:59:12;36.00;;;17.73;;
51686;SDS011;37774;52.192;4.584;2024-03-08T10:02:25;49.28;;;19.65;;
51686;SDS011;37774;52.192;4.584;2024-03-08T10:05:10;37.25;;;17.55;;
51686;SDS011;37774;52.192;4.584;2024-03-08T10:10:43;45.67;;;19.30;;
51686;SDS011;37774;52.192;4.584;2024-03-08T10:13:28;40.35;;;17.92;;
51686;SDS011;37774;52.192;4.584;2024-03-08T10:16:15;40.33;;;17.83;;
51686;SDS011;37774;52.192;4.584;2024-03-08T10:19:00;41.35;;;17.73;;
51686;SDS011;37774;52.192;4.584;2024-03-08T10:21:47;39.28;;;16.83;;
51686;SDS011;37774;52.192;4.584;2024-03-08T10:24:33;35.92;;;16.80;;
51686;SDS011;37774;52.192;4.584;2024-03-08T10:27:19;42.47;;;18.30;;
51686;SDS011;37774;52.192;4.584;2024-03-08T10:30:05;37.20;;;16.50;;
51686;SDS011;37774;52.192;4.584;2024-03-08T10:32:52;41.88;;;18.08;;
51686;SDS011;37774;52.192;4.584;2024-03-08T10:35:37;41.80;;;17.98;;
51686;SDS011;37774;52.192;4.584;2024-03-08T10:38:22;34.20;;;16.20;;
51686;SDS011;37774;52.192;4.584;2024-03-08T10:41:08;41.45;;;17.42;;
51686;SDS011;37774;52.192;4.584;2024-03-08T10:44:06;45.63;;;19.60;;
51686;SDS011;37774;52.192;4.584;2024-03-08T10:47:00;41.60;;;18.05;;
51686;SDS011;37774;52.192;4.584;2024-03-08T10:49:50;43.17;;;16.95;;
51686;SDS011;37774;52.192;4.584;2024-03-08T10:52:36;38.00;;;18.05;;
51686;SDS011;37774;52.192;4.584;2024-03-08T10:55:21;46.53;;;18.65;;
51686;SDS011;37774;52.192;4.584;2024-03-08T10:58:07;51.78;;;18.98;;
51686;SDS011;37774;52.192;4.584;2024-03-08T11:00:53;42.88;;;17.95;;
51686;SDS011;37774;52.192;4.584;2024-03-08T11:03:46;40.28;;;16.45;;
51686;SDS011;37774;52.192;4.584;2024-03-08T11:06:43;32.70;;;16.30;;
51686;SDS011;37774;52.192;4.584;2024-03-08T11:09:31;33.72;;;14.88;;
51686;SDS011;37774;52.192;4.584;2024-03-08T11:12:20;40.30;;;16.27;;
51686;SDS011;37774;52.192;4.584;2024-03-08T11:15:09;29.70;;;14.60;;
51686;SDS011;37774;52.192;4.584;2024-03-08T11:17:58;39.35;;;14.82;;
51686;SDS011;37774;52.192;4.584;2024-03-08T11:20:43;31.98;;;15.07;;
51686;SDS011;37774;52.192;4.584;2024-03-08T11:23:28;32.88;;;13.85;;
51686;SDS011;37774;52.192;4.584;2024-03-08T11:26:18;29.35;;;14.73;;
51686;SDS011;37774;52.192;4.584;2024-03-08T11:32:04;35.47;;;15.88;;
51686;SDS011;37774;52.192;4.584;2024-03-08T11:34:51;27.75;;;14.18;;
51686;SDS011;37774;52.192;4.584;2024-03-08T11:37:38;36.08;;;16.25;;
51686;SDS011;37774;52.192;4.584;2024-03-08T11:40:23;35.08;;;15.93;;
51686;SDS011;37774;52.192;4.584;2024-03-08T11:43:08;40.55;;;14.50;;
51686;SDS011;37774;52.192;4.584;2024-03-08T11:46:07;31.15;;;14.35;;
51686;SDS011;37774;52.192;4.584;2024-03-08T11:48:54;36.88;;;14.80;;
51686;SDS011;37774;52.192;4.584;2024-03-08T11:54:26;28.65;;;13.85;;
51686;SDS011;37774;52.192;4.584;2024-03-08T11:57:13;27.27;;;12.20;;
51686;SDS011;37774;52.192;4.584;2024-03-08T11:59:59;27.67;;;14.48;;
51686;SDS011;37774;52.192;4.584;2024-03-08T12:03:02;28.05;;;13.30;;
51686;SDS011;37774;52.192;4.584;2024-03-08T12:08:33;30.65;;;13.82;;
51686;SDS011;37774;52.192;4.584;2024-03-08T12:11:19;32.92;;;13.73;;
51686;SDS011;37774;52.192;4.584;2024-03-08T12:14:07;30.30;;;13.48;;
51686;SDS011;37774;52.192;4.584;2024-03-08T12:16:52;32.47;;;13.50;;
51686;SDS011;37774;52.192;4.584;2024-03-08T12:19:38;32.40;;;12.55;;
51686;SDS011;37774;52.192;4.584;2024-03-08T12:22:24;27.40;;;12.02;;
51686;SDS011;37774;52.192;4.584;2024-03-08T12:25:10;26.48;;;13.40;;
51686;SDS011;37774;52.192;4.584;2024-03-08T12:28:06;28.27;;;13.40;;
51686;SDS011;37774;52.192;4.584;2024-03-08T12:30:54;29.55;;;12.35;;
51686;SDS011;37774;52.192;4.584;2024-03-08T12:33:49;29.20;;;12.75;;
51686;SDS011;37774;52.192;4.584;2024-03-08T12:36:34;29.27;;;13.23;;
51686;SDS011;37774;52.192;4.584;2024-03-08T12:39:21;31.17;;;12.80;;
51686;SDS011;37774;52.192;4.584;2024-03-08T12:42:10;28.42;;;12.30;;
51686;SDS011;37774;52.192;4.584;2024-03-08T12:44:56;30.38;;;12.63;;
51686;SDS011;37774;52.192;4.584;2024-03-08T12:47:43;24.48;;;11.50;;
51686;SDS011;37774;52.192;4.584;2024-03-08T12:50:28;25.77;;;11.95;;
51686;SDS011;37774;52.192;4.584;2024-03-08T12:53:14;27.00;;;11.88;;
51686;SDS011;37774;52.192;4.584;2024-03-08T12:55:59;26.02;;;11.90;;
51686;SDS011;37774;52.192;4.584;2024-03-08T12:58:44;32.58;;;12.77;;
51686;SDS011;37774;52.192;4.584;2024-03-08T13:01:31;24.83;;;10.80;;
51686;SDS011;37774;52.192;4.584;2024-03-08T13:04:17;26.27;;;11.48;;
51686;SDS011;37774;52.192;4.584;2024-03-08T13:07:02;22.85;;;10.70;;
51686;SDS011;37774;52.192;4.584;2024-03-08T13:09:48;20.60;;;10.48;;
51686;SDS011;37774;52.192;4.584;2024-03-08T13:12:35;26.08;;;10.65;;
51686;SDS011;37774;52.192;4.584;2024-03-08T13:15:21;24.15;;;9.63;;
51686;SDS011;37774;52.192;4.584;2024-03-08T13:18:08;20.48;;;9.45;;
51686;SDS011;37774;52.192;4.584;2024-03-08T13:20:54;22.48;;;9.98;;
51686;SDS011;37774;52.192;4.584;2024-03-08T13:23:41;25.83;;;11.23;;
51686;SDS011;37774;52.192;4.584;2024-03-08T13:26:29;25.08;;;12.15;;
51686;SDS011;37774;52.192;4.584;2024-03-08T13:29:16;29.02;;;12.23;;
51686;SDS011;37774;52.192;4.584;2024-03-08T13:32:02;26.65;;;11.65;;
51686;SDS011;37774;52.192;4.584;2024-03-08T13:34:49;20.60;;;9.82;;
51686;SDS011;37774;52.192;4.584;2024-03-08T13:37:34;27.15;;;10.32;;
51686;SDS011;37774;52.192;4.584;2024-03-08T13:40:20;26.70;;;10.73;;
51686;SDS011;37774;52.192;4.584;2024-03-08T13:43:05;23.05;;;11.50;;
51686;SDS011;37774;52.192;4.584;2024-03-08T13:45:51;30.23;;;12.30;;
51686;SDS011;37774;52.192;4.584;2024-03-08T13:48:38;27.90;;;11.75;;
51686;SDS011;37774;52.192;4.584;2024-03-08T13:51:26;30.67;;;11.00;;
51686;SDS011;37774;52.192;4.584;2024-03-08T13:54:11;29.48;;;11.20;;
51686;SDS011;37774;52.192;4.584;2024-03-08T13:56:56;21.13;;;10.95;;
51686;SDS011;37774;52.192;4.584;2024-03-08T13:59:41;22.63;;;11.35;;
51686;SDS011;37774;52.192;4.584;2024-03-08T14:02:27;27.65;;;12.55;;
51686;SDS011;37774;52.192;4.584;2024-03-08T14:05:14;22.55;;;10.82;;
51686;SDS011;37774;52.192;4.584;2024-03-08T14:08:01;23.38;;;11.02;;
51686;SDS011;37774;52.192;4.584;2024-03-08T14:10:47;24.15;;;11.52;;
51686;SDS011;37774;52.192;4.584;2024-03-08T14:16:19;23.88;;;10.82;;
51686;SDS011;37774;52.192;4.584;2024-03-08T14:19:04;22.52;;;10.18;;
51686;SDS011;37774;52.192;4.584;2024-03-08T14:21:50;22.98;;;11.32;;
51686;SDS011;37774;52.192;4.584;2024-03-08T14:24:38;21.20;;;11.02;;
51686;SDS011;37774;52.192;4.584;2024-03-08T14:27:23;28.85;;;12.60;;
51686;SDS011;37774;52.192;4.584;2024-03-08T14:30:08;23.48;;;10.32;;
51686;SDS011;37774;52.192;4.584;2024-03-08T14:32:54;28.13;;;11.65;;
51686;SDS011;37774;52.192;4.584;2024-03-08T14:35:40;22.38;;;10.45;;
51686;SDS011;37774;52.192;4.584;2024-03-08T14:38:25;27.92;;;12.00;;
51686;SDS011;37774;52.192;4.584;2024-03-08T14:41:12;25.27;;;10.77;;
51686;SDS011;37774;52.192;4.584;2024-03-08T14:46:44;24.17;;;12.18;;
51686;SDS011;37774;52.192;4.584;2024-03-08T14:49:29;25.52;;;11.35;;
51686;SDS011;37774;52.192;4.584;2024-03-08T14:52:14;24.90;;;11.05;;
51686;SDS011;37774;52.192;4.584;2024-03-08T14:55:11;25.60;;;11.77;;
51686;SDS011;37774;52.192;4.584;2024-03-08T14:57:59;32.20;;;12.73;;
51686;SDS011;37774;52.192;4.584;2024-03-08T15:00:44;32.83;;;12.20;;
51686;SDS011;37774;52.192;4.584;2024-03-08T15:03:29;26.98;;;12.23;;
51686;SDS011;37774;52.192;4.584;2024-03-08T15:06:14;27.73;;;12.25;;
51686;SDS011;37774;52.192;4.584;2024-03-08T15:09:05;25.02;;;12.65;;
51686;SDS011;37774;52.192;4.584;2024-03-08T15:11:55;38.53;;;12.07;;
51686;SDS011;37774;52.192;4.584;2024-03-08T15:14:42;27.38;;;12.43;;
51686;SDS011;37774;52.192;4.584;2024-03-08T15:17:27;38.15;;;12.65;;
51686;SDS011;37774;52.192;4.584;2024-03-08T15:20:13;22.90;;;11.05;;
51686;SDS011;37774;52.192;4.584;2024-03-08T15:23:00;29.83;;;12.27;;
51686;SDS011;37774;52.192;4.584;2024-03-08T15:25:47;27.02;;;11.65;;
51686;SDS011;37774;52.192;4.584;2024-03-08T15:28:34;26.35;;;12.10;;
51686;SDS011;37774;52.192;4.584;2024-03-08T15:31:22;33.38;;;13.45;;
51686;SDS011;37774;52.192;4.584;2024-03-08T15:34:08;29.38;;;11.85;;
51686;SDS011;37774;52.192;4.584;2024-03-08T15:36:55;21.90;;;10.50;;
51686;SDS011;37774;52.192;4.584;2024-03-08T15:39:45;27.30;;;12.73;;
51686;SDS011;37774;52.192;4.584;2024-03-08T15:42:30;27.58;;;12.18;;
51686;SDS011;37774;52.192;4.584;2024-03-08T15:45:16;25.00;;;13.15;;
51686;SDS011;37774;52.192;4.584;2024-03-08T15:48:04;35.42;;;13.60;;
51686;SDS011;37774;52.192;4.584;2024-03-08T15:50:49;29.08;;;13.80;;
51686;SDS011;37774;52.192;4.584;2024-03-08T15:53:35;32.47;;;13.40;;
51686;SDS011;37774;52.192;4.584;2024-03-08T15:56:20;29.75;;;12.55;;
51686;SDS011;37774;52.192;4.584;2024-03-08T15:59:06;25.05;;;13.23;;
51686;SDS011;37774;52.192;4.584;2024-03-08T16:01:52;30.20;;;12.18;;
51686;SDS011;37774;52.192;4.584;2024-03-08T16:04:38;23.20;;;11.30;;
51686;SDS011;37774;52.192;4.584;2024-03-08T16:07:23;34.55;;;13.80;;
51686;SDS011;37774;52.192;4.584;2024-03-08T16:10:09;30.05;;;13.15;;
51686;SDS011;37774;52.192;4.584;2024-03-08T16:12:55;24.13;;;12.70;;
51686;SDS011;37774;52.192;4.584;2024-03-08T16:15:41;30.00;;;13.55;;
51686;SDS011;37774;52.192;4.584;2024-03-08T16:18:28;28.90;;;13.15;;
51686;SDS011;37774;52.192;4.584;2024-03-08T16:21:16;30.42;;;13.50;;
51686;SDS011;37774;52.192;4.584;2024-03-08T16:24:01;30.25;;;14.13;;
51686;SDS011;37774;52.192;4.584;2024-03-08T16:26:47;26.42;;;11.55;;
51686;SDS011;37774;52.192;4.584;2024-03-08T16:29:32;24.95;;;11.95;;
51686;SDS011;37774;52.192;4.584;2024-03-08T16:32:17;26.10;;;12.45;;
51686;SDS011;37774;52.192;4.584;2024-03-08T16:35:04;25.77;;;11.80;;
51686;SDS011;37774;52.192;4.584;2024-03-08T16:37:56;27.52;;;12.23;;
51686;SDS011;37774;52.192;4.584;2024-03-08T16:40:41;33.00;;;13.85;;
51686;SDS011;37774;52.192;4.584;2024-03-08T16:43:26;24.15;;;12.13;;
51686;SDS011;37774;52.192;4.584;2024-03-08T16:46:12;28.30;;;13.43;;